createdAt,value
2019-05-03T00:00:07.464Z,0.00
2019-05-03T00:01:07.686Z,0.00
2019-05-03T00:02:07.858Z,0.00
2019-05-03T00:03:08.079Z,0.00
2019-05-03T00:04:08.247Z,0.00
2019-05-03T00:05:08.449Z,0.00
2019-05-03T00:06:08.631Z,0.00
2019-05-03T00:07:08.843Z,0.00
2019-05-03T00:08:09.023Z,0.00
2019-05-03T00:09:09.190Z,0.00
2019-05-03T00:10:09.363Z,0.00
2019-05-03T00:11:09.526Z,0.00
2019-05-03T00:12:09.743Z,0.00
2019-05-03T00:13:09.938Z,0.00
2019-05-03T00:14:10.097Z,0.00
2019-05-03T00:15:12.013Z,0.00
2019-05-03T00:16:12.219Z,0.00
2019-05-03T00:17:11.725Z,0.00
2019-05-03T00:18:11.932Z,0.00
2019-05-03T00:19:12.720Z,0.00
2019-05-03T00:20:11.649Z,0.00
2019-05-03T00:21:12.504Z,0.00
2019-05-03T00:22:12.661Z,0.00
2019-05-03T00:23:12.155Z,0.00
2019-05-03T00:24:12.986Z,0.00
2019-05-03T00:25:12.880Z,0.00
2019-05-03T00:26:13.387Z,0.00
2019-05-03T00:27:12.694Z,0.00
2019-05-03T00:28:13.778Z,0.00
2019-05-03T00:29:12.928Z,0.00
2019-05-03T00:30:13.139Z,0.00
2019-05-03T00:31:13.323Z,0.00
2019-05-03T00:32:13.502Z,0.00
2019-05-03T00:33:13.691Z,0.00
2019-05-03T00:34:13.874Z,0.00
2019-05-03T00:35:14.067Z,0.00
2019-05-03T00:36:14.268Z,0.00
2019-05-03T00:37:14.459Z,0.00
2019-05-03T00:38:14.670Z,0.00
2019-05-03T00:39:14.892Z,0.00
2019-05-03T00:40:15.088Z,0.00
2019-05-03T00:41:15.317Z,0.00
2019-05-03T00:42:15.513Z,0.00
2019-05-03T00:43:15.733Z,0.00
2019-05-03T00:44:15.923Z,0.00
2019-05-03T00:45:16.101Z,0.00
2019-05-03T00:46:16.295Z,0.00
2019-05-03T00:47:16.491Z,0.00
2019-05-03T00:48:16.651Z,0.00
2019-05-03T00:49:16.879Z,0.00
2019-05-03T00:50:17.097Z,0.00
2019-05-03T00:51:17.317Z,0.00
2019-05-03T00:52:17.518Z,0.00
2019-05-03T00:53:17.722Z,0.00
2019-05-03T00:54:17.955Z,0.00
2019-05-03T00:55:19.246Z,0.00
2019-05-03T00:56:19.322Z,0.00
2019-05-03T00:57:18.474Z,0.00
2019-05-03T00:58:18.690Z,0.00
2019-05-03T00:59:18.939Z,0.00
2019-05-03T01:00:19.010Z,0.00
2019-05-03T01:01:19.207Z,0.00
2019-05-03T01:02:19.391Z,0.00
2019-05-03T01:03:19.593Z,0.00
2019-05-03T01:04:19.801Z,0.00
2019-05-03T01:05:19.999Z,0.00
2019-05-03T01:06:22.272Z,0.00
2019-05-03T01:07:22.107Z,0.00
2019-05-03T01:08:22.003Z,0.00
2019-05-03T01:09:22.548Z,0.00
2019-05-03T01:10:22.627Z,0.00
2019-05-03T01:11:22.275Z,0.00
2019-05-03T01:12:22.339Z,0.00
2019-05-03T01:13:21.963Z,0.00
2019-05-03T01:14:22.710Z,0.00
2019-05-03T01:15:21.925Z,0.00
2019-05-03T01:16:22.668Z,0.00
2019-05-03T01:17:23.362Z,0.00
2019-05-03T01:18:22.507Z,0.00
2019-05-03T01:19:22.814Z,0.00
2019-05-03T01:20:23.923Z,0.00
2019-05-03T01:21:23.080Z,0.00
2019-05-03T01:22:23.302Z,0.00
2019-05-03T01:23:23.491Z,0.00
2019-05-03T01:24:23.699Z,0.00
2019-05-03T01:25:32.289Z,0.00
2019-05-03T01:26:26.098Z,0.00
2019-05-03T01:27:24.263Z,0.00
2019-05-03T01:28:25.383Z,0.00
2019-05-03T01:29:24.568Z,0.00
2019-05-03T01:30:24.751Z,0.00
2019-05-03T01:31:25.011Z,0.00
2019-05-03T01:32:25.098Z,0.00
2019-05-03T01:33:25.315Z,0.00
2019-05-03T01:34:25.508Z,0.00
2019-05-03T01:35:25.693Z,0.00
2019-05-03T01:36:25.926Z,0.00
2019-05-03T01:37:26.146Z,0.00
2019-05-03T01:38:26.357Z,0.00
2019-05-03T01:39:26.534Z,0.00
2019-05-03T01:40:26.707Z,0.00
2019-05-03T01:41:26.929Z,0.00
2019-05-03T01:42:27.124Z,0.00
2019-05-03T01:43:27.330Z,0.00
2019-05-03T01:44:27.537Z,0.00
2019-05-03T01:45:27.749Z,0.00
2019-05-03T01:46:27.978Z,0.00
2019-05-03T01:47:28.181Z,0.00
2019-05-03T01:48:28.403Z,0.00
2019-05-03T01:49:28.612Z,0.00
2019-05-03T01:50:28.827Z,0.00
2019-05-03T01:51:29.036Z,0.00
2019-05-03T01:52:29.210Z,0.00
2019-05-03T01:53:29.393Z,0.00
2019-05-03T01:54:29.605Z,0.00
2019-05-03T01:55:41.848Z,0.00
2019-05-03T01:56:31.676Z,0.00
2019-05-03T01:57:30.144Z,0.00
2019-05-03T01:58:31.914Z,0.00
2019-05-03T01:59:32.055Z,0.00
2019-05-03T02:00:31.892Z,0.00
2019-05-03T02:01:31.600Z,0.00
2019-05-03T02:02:32.413Z,0.00
2019-05-03T02:03:32.540Z,0.00
2019-05-03T02:04:32.334Z,0.00
2019-05-03T02:05:32.478Z,0.00
2019-05-03T02:06:31.873Z,0.00
2019-05-03T02:07:32.878Z,0.00
2019-05-03T02:08:32.658Z,0.00
2019-05-03T02:09:33.218Z,0.00
2019-05-03T02:10:32.362Z,0.00
2019-05-03T02:11:32.659Z,0.00
2019-05-03T02:12:33.771Z,0.00
2019-05-03T02:13:32.961Z,0.00
2019-05-03T02:14:33.139Z,0.00
2019-05-03T02:15:33.294Z,0.00
2019-05-03T02:16:33.465Z,0.00
2019-05-03T02:17:33.635Z,0.00
2019-05-03T02:18:34.823Z,0.00
2019-05-03T02:19:33.989Z,0.00
2019-05-03T02:20:34.165Z,0.00
2019-05-03T02:21:34.329Z,0.00
2019-05-03T02:22:34.482Z,0.00
2019-05-03T02:23:34.648Z,0.00
2019-05-03T02:24:34.815Z,0.00
2019-05-03T02:25:35.010Z,0.00
2019-05-03T02:26:35.173Z,0.00
2019-05-03T02:27:35.377Z,0.00
2019-05-03T02:28:35.591Z,0.00
2019-05-03T02:29:35.784Z,0.00
2019-05-03T02:30:35.986Z,0.00
2019-05-03T02:31:36.140Z,0.00
2019-05-03T02:32:36.302Z,0.00
2019-05-03T02:33:37.481Z,0.00
2019-05-03T02:34:36.628Z,0.00
2019-05-03T02:35:36.816Z,0.00
2019-05-03T02:36:36.977Z,0.00
2019-05-03T02:37:37.156Z,0.00
2019-05-03T02:38:37.330Z,0.00
2019-05-03T02:39:37.536Z,0.00
2019-05-03T02:40:37.736Z,0.00
2019-05-03T02:41:37.976Z,0.00
2019-05-03T02:42:38.184Z,0.00
2019-05-03T02:43:38.404Z,0.00
2019-05-03T02:44:38.600Z,0.00
2019-05-03T02:45:38.815Z,0.00
2019-05-03T02:46:39.022Z,0.00
2019-05-03T02:47:39.195Z,0.00
2019-05-03T02:48:39.391Z,0.00
2019-05-03T02:49:39.598Z,0.00
2019-05-03T02:50:39.815Z,0.00
2019-05-03T02:51:40.024Z,0.00
2019-05-03T02:52:40.216Z,0.00
2019-05-03T02:53:40.411Z,0.00
2019-05-03T02:54:40.600Z,0.00
2019-05-03T02:55:40.792Z,0.00
2019-05-03T02:56:41.014Z,0.00
2019-05-03T02:57:41.094Z,0.00
2019-05-03T02:58:41.272Z,0.00
2019-05-03T02:59:41.481Z,0.00
2019-05-03T03:00:41.685Z,0.00
2019-05-03T03:01:41.887Z,0.00
2019-05-03T03:02:42.047Z,0.00
2019-05-03T03:03:45.433Z,0.00
2019-05-03T03:04:42.378Z,0.00
2019-05-03T03:05:42.551Z,0.00
2019-05-03T03:06:45.296Z,0.00
2019-05-03T03:07:45.743Z,0.00
2019-05-03T03:08:45.391Z,0.00
2019-05-03T03:09:45.261Z,0.00
2019-05-03T03:10:45.613Z,0.00
2019-05-03T03:11:45.798Z,0.00
2019-05-03T03:12:46.408Z,0.00
2019-05-03T03:13:45.730Z,0.00
2019-05-03T03:14:45.556Z,0.00
2019-05-03T03:15:45.837Z,0.00
2019-05-03T03:16:45.764Z,0.00
2019-05-03T03:17:45.874Z,0.00
2019-05-03T03:18:45.890Z,0.00
2019-05-03T03:19:46.180Z,0.00
2019-05-03T03:20:46.191Z,0.00
2019-05-03T03:21:46.699Z,0.00
2019-05-03T03:22:46.521Z,0.00
2019-05-03T03:23:46.149Z,0.00
2019-05-03T03:24:46.859Z,0.00
2019-05-03T03:25:46.318Z,0.00
2019-05-03T03:26:47.559Z,0.00
2019-05-03T03:27:46.402Z,0.00
2019-05-03T03:28:46.580Z,0.00
2019-05-03T03:29:46.768Z,0.00
2019-05-03T03:30:48.520Z,0.00
2019-05-03T03:31:48.696Z,0.00
2019-05-03T03:32:48.505Z,0.00
2019-05-03T03:33:47.850Z,0.00
2019-05-03T03:34:55.042Z,0.00
2019-05-03T03:35:49.843Z,0.00
2019-05-03T03:36:59.582Z,0.00
2019-05-03T03:37:50.160Z,0.00
2019-05-03T03:38:48.310Z,0.00
2019-05-03T03:39:48.473Z,0.00
2019-05-03T03:40:48.646Z,0.00
2019-05-03T03:41:48.842Z,0.00
2019-05-03T03:42:49.039Z,0.00
2019-05-03T03:43:49.230Z,0.00
2019-05-03T03:44:49.389Z,0.00
2019-05-03T03:45:49.568Z,0.00
2019-05-03T03:46:49.746Z,0.00
2019-05-03T03:47:49.926Z,0.00
2019-05-03T03:48:50.127Z,0.00
2019-05-03T03:49:50.284Z,0.00
2019-05-03T03:50:50.453Z,0.00
2019-05-03T03:51:50.628Z,0.00
2019-05-03T03:52:50.829Z,0.00
2019-05-03T03:53:51.012Z,0.00
2019-05-03T03:54:51.206Z,0.00
2019-05-03T03:55:51.415Z,0.00
2019-05-03T03:56:59.410Z,0.00
2019-05-03T03:57:55.676Z,0.00
2019-05-03T03:58:55.360Z,0.00
2019-05-03T03:59:52.115Z,0.00
2019-05-03T04:00:52.306Z,0.00
2019-05-03T04:01:54.953Z,0.00
2019-05-03T04:02:55.062Z,0.00
2019-05-03T04:03:52.824Z,0.00
2019-05-03T04:04:55.987Z,0.00
2019-05-03T04:05:55.402Z,0.00
2019-05-03T04:06:58.438Z,0.00
2019-05-03T04:07:56.173Z,0.00
2019-05-03T04:08:56.038Z,0.00
2019-05-03T04:09:56.205Z,0.00
2019-05-03T04:10:55.869Z,0.00
2019-05-03T04:11:56.739Z,0.00
2019-05-03T04:12:56.092Z,0.00
2019-05-03T04:13:56.048Z,0.00
2019-05-03T04:14:56.359Z,0.00
2019-05-03T04:15:56.301Z,0.00
2019-05-03T04:16:56.349Z,0.00
2019-05-03T04:17:56.727Z,0.00
2019-05-03T04:18:56.515Z,0.00
2019-05-03T04:19:56.019Z,5.62
2019-05-03T04:20:56.925Z,5.62
2019-05-03T04:21:56.211Z,5.62
2019-05-03T04:22:57.288Z,5.62
2019-05-03T04:23:56.436Z,5.62
2019-05-03T04:24:56.628Z,5.62
2019-05-03T04:25:57.001Z,5.62
2019-05-03T04:27:13.772Z,5.62
2019-05-03T04:27:58.130Z,5.62
2019-05-03T04:28:57.301Z,5.62
2019-05-03T04:29:57.495Z,5.62
2019-05-03T04:30:57.704Z,5.62
2019-05-03T04:31:57.929Z,5.62
2019-05-03T04:32:58.122Z,5.62
2019-05-03T04:33:58.305Z,5.62
2019-05-03T04:34:58.505Z,5.62
2019-05-03T04:35:58.613Z,5.62
2019-05-03T04:36:58.837Z,5.62
2019-05-03T04:37:59.016Z,5.62
2019-05-03T04:38:59.193Z,5.62
2019-05-03T04:39:59.398Z,11.25
2019-05-03T04:40:59.595Z,11.25
2019-05-03T04:41:59.811Z,11.25
2019-05-03T04:43:00.004Z,11.25
2019-05-03T04:44:00.186Z,11.25
2019-05-03T04:45:00.370Z,16.88
2019-05-03T04:46:00.548Z,16.88
2019-05-03T04:47:00.735Z,16.88
2019-05-03T04:48:01.948Z,16.88
2019-05-03T04:49:01.113Z,16.88
2019-05-03T04:50:01.299Z,16.88
2019-05-03T04:51:01.482Z,16.88
2019-05-03T04:52:01.678Z,16.88
2019-05-03T04:53:01.907Z,16.88
2019-05-03T04:54:01.994Z,22.50
2019-05-03T04:55:02.175Z,22.50
2019-05-03T04:56:05.524Z,28.12
2019-05-03T04:57:02.565Z,28.12
2019-05-03T04:58:04.794Z,33.75
2019-05-03T04:59:05.087Z,33.75
2019-05-03T05:00:05.643Z,33.75
2019-05-03T05:01:06.280Z,33.75
2019-05-03T05:02:05.850Z,33.75
2019-05-03T05:03:05.638Z,33.75
2019-05-03T05:04:05.313Z,33.75
2019-05-03T05:05:06.029Z,39.38
2019-05-03T05:06:06.295Z,45.00
2019-05-03T05:07:06.238Z,50.62
2019-05-03T05:08:06.038Z,50.62
2019-05-03T05:09:05.642Z,56.25
2019-05-03T05:10:05.297Z,61.88
2019-05-03T05:11:10.115Z,61.88
2019-05-03T05:12:05.882Z,67.50
2019-05-03T05:13:06.363Z,67.50
2019-05-03T05:14:06.429Z,67.50
2019-05-03T05:15:06.637Z,67.50
2019-05-03T05:16:06.180Z,61.88
2019-05-03T05:17:06.978Z,56.25
2019-05-03T05:18:06.359Z,50.62
2019-05-03T05:19:06.356Z,45.00
2019-05-03T05:20:06.563Z,39.38
2019-05-03T05:21:06.780Z,33.75
2019-05-03T05:22:06.951Z,28.12
2019-05-03T05:23:07.128Z,28.12
2019-05-03T05:24:07.286Z,28.12
2019-05-03T05:25:07.486Z,28.12
2019-05-03T05:26:07.656Z,28.12
2019-05-03T05:27:07.809Z,28.12
2019-05-03T05:28:07.975Z,28.12
2019-05-03T05:29:08.154Z,28.12
2019-05-03T05:30:08.337Z,28.12
2019-05-03T05:31:08.520Z,22.50
2019-05-03T05:32:08.684Z,22.50
2019-05-03T05:33:08.840Z,16.88
2019-05-03T05:34:09.057Z,16.88
2019-05-03T05:35:09.253Z,16.88
2019-05-03T05:36:09.408Z,16.88
2019-05-03T05:37:09.603Z,16.88
2019-05-03T05:38:09.773Z,16.88
2019-05-03T05:39:09.946Z,22.50
2019-05-03T05:40:10.100Z,22.50
2019-05-03T05:41:10.285Z,28.12
2019-05-03T05:42:10.429Z,39.38
2019-05-03T05:43:10.593Z,45.00
2019-05-03T05:44:10.749Z,45.00
2019-05-03T05:45:10.915Z,56.25
2019-05-03T05:46:11.076Z,56.25
2019-05-03T05:47:11.230Z,61.88
2019-05-03T05:48:11.391Z,73.12
2019-05-03T05:49:11.527Z,84.38
2019-05-03T05:50:11.703Z,90.00
2019-05-03T05:51:13.563Z,84.38
2019-05-03T05:52:15.322Z,78.75
2019-05-03T05:53:12.303Z,73.12
2019-05-03T05:54:14.255Z,67.50
2019-05-03T05:55:12.630Z,61.88
2019-05-03T05:56:12.796Z,67.50
2019-05-03T05:57:14.913Z,61.88
2019-05-03T05:58:13.083Z,61.88
2019-05-03T05:59:14.873Z,56.25
2019-05-03T06:00:15.329Z,61.88
2019-05-03T06:01:14.589Z,73.12
2019-05-03T06:02:15.090Z,78.75
2019-05-03T06:03:15.027Z,84.38
2019-05-03T06:04:15.475Z,84.38
2019-05-03T06:05:15.370Z,90.00
2019-05-03T06:06:15.313Z,95.62
2019-05-03T06:07:15.848Z,90.00
2019-05-03T06:08:15.204Z,90.00
2019-05-03T06:09:16.219Z,95.62
2019-05-03T06:10:16.687Z,101.25
2019-05-03T06:11:16.568Z,112.50
2019-05-03T06:12:15.713Z,112.50
2019-05-03T06:13:15.871Z,118.12
2019-05-03T06:14:16.046Z,112.50
2019-05-03T06:15:16.206Z,112.50
2019-05-03T06:16:16.371Z,123.75
2019-05-03T06:17:16.560Z,135.00
2019-05-03T06:18:16.729Z,140.62
2019-05-03T06:19:16.889Z,140.62
2019-05-03T06:20:17.051Z,129.38
2019-05-03T06:21:17.209Z,135.00
2019-05-03T06:22:17.385Z,135.00
2019-05-03T06:23:17.547Z,140.62
2019-05-03T06:24:17.696Z,151.88
2019-05-03T06:25:17.855Z,163.12
2019-05-03T06:26:18.005Z,168.75
2019-05-03T06:27:18.179Z,157.50
2019-05-03T06:28:20.796Z,135.00
2019-05-03T06:29:19.472Z,118.12
2019-05-03T06:30:18.602Z,112.50
2019-05-03T06:31:21.136Z,90.00
2019-05-03T06:32:19.930Z,90.00
2019-05-03T06:33:19.060Z,95.62
2019-05-03T06:34:19.213Z,90.00
2019-05-03T06:35:19.346Z,90.00
2019-05-03T06:36:19.478Z,90.00
2019-05-03T06:37:19.640Z,90.00
2019-05-03T06:38:19.793Z,95.62
2019-05-03T06:39:19.932Z,95.62
2019-05-03T06:40:20.099Z,95.62
2019-05-03T06:41:20.227Z,95.62
2019-05-03T06:42:22.868Z,106.88
2019-05-03T06:43:20.519Z,123.75
2019-05-03T06:44:24.761Z,146.25
2019-05-03T06:45:24.967Z,163.12
2019-05-03T06:46:23.590Z,174.38
2019-05-03T06:47:25.168Z,185.62
2019-05-03T06:48:22.368Z,208.12
2019-05-03T06:49:25.446Z,219.38
2019-05-03T06:50:25.220Z,219.38
2019-05-03T06:51:24.851Z,213.75
2019-05-03T06:52:27.589Z,225.00
2019-05-03T06:53:25.463Z,225.00
2019-05-03T06:54:28.348Z,225.00
2019-05-03T06:55:24.863Z,202.50
2019-05-03T06:56:28.893Z,174.38
2019-05-03T06:57:25.406Z,146.25
2019-05-03T06:58:31.405Z,123.75
2019-05-03T06:59:25.412Z,112.50
2019-05-03T07:00:24.863Z,112.50
2019-05-03T07:01:25.333Z,106.88
2019-05-03T07:02:25.550Z,118.12
2019-05-03T07:03:25.191Z,112.50
2019-05-03T07:04:25.426Z,112.50
2019-05-03T07:05:25.101Z,106.88
2019-05-03T07:06:34.536Z,101.25
2019-05-03T07:07:28.045Z,95.62
2019-05-03T07:08:26.122Z,101.25
2019-05-03T07:09:25.292Z,112.50
2019-05-03T07:10:25.485Z,118.12
2019-05-03T07:11:25.646Z,135.00
2019-05-03T07:12:25.823Z,151.88
2019-05-03T07:13:25.954Z,174.38
2019-05-03T07:14:26.163Z,191.25
2019-05-03T07:15:26.359Z,202.50
2019-05-03T07:16:26.526Z,208.12
2019-05-03T07:17:26.708Z,208.12
2019-05-03T07:18:26.893Z,219.38
2019-05-03T07:19:27.099Z,219.38
2019-05-03T07:20:27.294Z,213.75
2019-05-03T07:21:27.456Z,225.00
2019-05-03T07:22:27.654Z,208.12
2019-05-03T07:23:27.826Z,196.88
2019-05-03T07:24:28.029Z,191.25
2019-05-03T07:25:28.255Z,196.88
2019-05-03T07:26:28.436Z,185.62
2019-05-03T07:27:28.605Z,185.62
2019-05-03T07:28:28.806Z,196.88
2019-05-03T07:29:28.979Z,202.50
2019-05-03T07:30:29.187Z,202.50
2019-05-03T07:31:29.349Z,225.00
2019-05-03T07:32:31.449Z,236.25
2019-05-03T07:33:30.715Z,253.12
2019-05-03T07:34:29.846Z,292.50
2019-05-03T07:35:30.044Z,315.00
2019-05-03T07:36:30.202Z,354.38
2019-05-03T07:37:30.379Z,354.38
2019-05-03T07:38:30.573Z,348.75
2019-05-03T07:39:30.736Z,354.38
2019-05-03T07:40:30.928Z,337.50
2019-05-03T07:41:31.109Z,320.62
2019-05-03T07:42:31.285Z,309.38
2019-05-03T07:43:31.480Z,303.75
2019-05-03T07:44:31.643Z,303.75
2019-05-03T07:45:31.800Z,309.38
2019-05-03T07:46:31.981Z,315.00
2019-05-03T07:47:32.151Z,315.00
2019-05-03T07:48:32.368Z,326.25
2019-05-03T07:49:32.577Z,292.50
2019-05-03T07:50:33.318Z,253.12
2019-05-03T07:51:34.802Z,230.62
2019-05-03T07:52:34.853Z,213.75
2019-05-03T07:53:34.898Z,202.50
2019-05-03T07:54:34.994Z,191.25
2019-05-03T07:55:35.284Z,174.38
2019-05-03T07:56:35.566Z,168.75
2019-05-03T07:57:35.679Z,163.12
2019-05-03T07:58:35.275Z,151.88
2019-05-03T07:59:35.660Z,146.25
2019-05-03T08:00:35.247Z,140.62
2019-05-03T08:01:35.621Z,140.62
2019-05-03T08:02:36.035Z,157.50
2019-05-03T08:03:35.813Z,185.62
2019-05-03T08:04:35.823Z,196.88
2019-05-03T08:05:36.255Z,230.62
2019-05-03T08:06:35.441Z,275.62
2019-05-03T08:07:35.751Z,326.25
2019-05-03T08:08:36.724Z,748.12
2019-05-03T08:09:35.868Z,354.38
2019-05-03T08:10:36.075Z,393.75
2019-05-03T08:11:36.277Z,793.12
2019-05-03T08:12:36.585Z,455.62
2019-05-03T08:13:36.640Z,438.75
2019-05-03T08:14:36.827Z,388.12
2019-05-03T08:15:36.992Z,776.25
2019-05-03T08:16:37.175Z,382.50
2019-05-03T08:17:37.371Z,326.25
2019-05-03T08:18:37.539Z,444.38
2019-05-03T08:19:37.705Z,286.88
2019-05-03T08:20:37.881Z,270.00
2019-05-03T08:21:39.061Z,247.50
2019-05-03T08:22:38.274Z,230.62
2019-05-03T08:23:38.442Z,225.00
2019-05-03T08:24:38.612Z,202.50
2019-05-03T08:25:38.783Z,185.62
2019-05-03T08:26:38.979Z,174.38
2019-05-03T08:27:39.142Z,168.75
2019-05-03T08:28:39.322Z,168.75
2019-05-03T08:29:39.529Z,174.38
2019-05-03T08:30:39.702Z,196.88
2019-05-03T08:31:39.909Z,208.12
2019-05-03T08:32:40.094Z,241.88
2019-05-03T08:33:40.270Z,264.38
2019-05-03T08:34:40.448Z,275.62
2019-05-03T08:35:40.638Z,270.00
2019-05-03T08:36:40.827Z,275.62
2019-05-03T08:37:41.009Z,292.50
2019-05-03T08:38:41.177Z,315.00
2019-05-03T08:39:41.409Z,331.88
2019-05-03T08:40:41.567Z,354.38
2019-05-03T08:41:41.767Z,365.62
2019-05-03T08:42:41.974Z,354.38
2019-05-03T08:43:42.139Z,348.75
2019-05-03T08:44:42.305Z,354.38
2019-05-03T08:45:44.620Z,371.25
2019-05-03T08:46:47.070Z,405.00
2019-05-03T08:47:44.865Z,331.88
2019-05-03T08:48:43.091Z,270.00
2019-05-03T08:49:45.024Z,236.25
2019-05-03T08:50:45.121Z,230.62
2019-05-03T08:51:44.588Z,236.25
2019-05-03T08:52:45.213Z,258.75
2019-05-03T08:53:45.869Z,331.88
2019-05-03T08:54:44.925Z,303.75
2019-05-03T08:55:45.237Z,337.50
2019-05-03T08:56:45.156Z,286.88
2019-05-03T08:57:45.623Z,292.50
2019-05-03T08:58:45.184Z,326.25
2019-05-03T08:59:45.933Z,360.00
2019-05-03T09:00:45.451Z,388.12
2019-05-03T09:01:46.279Z,382.50
2019-05-03T09:02:45.429Z,371.25
2019-05-03T09:03:45.913Z,354.38
2019-05-03T09:04:46.803Z,343.12
2019-05-03T09:05:46.532Z,326.25
2019-05-03T09:06:46.175Z,298.12
2019-05-03T09:07:46.369Z,281.25
2019-05-03T09:08:46.637Z,270.00
2019-05-03T09:09:46.710Z,264.38
2019-05-03T09:10:46.900Z,264.38
2019-05-03T09:11:47.074Z,264.38
2019-05-03T09:12:47.275Z,264.38
2019-05-03T09:13:47.375Z,270.00
2019-05-03T09:14:48.502Z,258.75
2019-05-03T09:15:48.833Z,253.12
2019-05-03T09:16:48.055Z,253.12
2019-05-03T09:17:48.139Z,264.38
2019-05-03T09:18:48.343Z,281.25
2019-05-03T09:19:48.491Z,309.38
2019-05-03T09:20:48.648Z,337.50
2019-05-03T09:21:48.812Z,360.00
2019-05-03T09:22:49.077Z,382.50
2019-05-03T09:23:49.179Z,461.25
2019-05-03T09:24:49.371Z,450.00
2019-05-03T09:25:49.560Z,399.38
2019-05-03T09:26:49.730Z,540.00
2019-05-03T09:27:50.017Z,281.25
2019-05-03T09:28:50.084Z,236.25
2019-05-03T09:29:50.249Z,208.12
2019-05-03T09:30:50.472Z,202.50
2019-05-03T09:38:27.123Z,208.12
2019-05-03T09:39:06.286Z,219.38
2019-05-03T09:40:06.391Z,241.88
2019-05-03T09:41:06.651Z,270.00
2019-05-03T09:42:06.638Z,298.12
2019-05-03T09:43:06.776Z,326.25
2019-05-03T09:44:06.948Z,371.25
2019-05-03T09:45:07.167Z,438.75
2019-05-03T09:46:07.332Z,500.62
2019-05-03T09:47:07.484Z,950.62
2019-05-03T09:48:07.678Z,804.38
2019-05-03T09:49:13.334Z,573.75
2019-05-03T09:50:09.083Z,506.25
2019-05-03T09:51:08.300Z,466.88
2019-05-03T09:52:08.727Z,416.25
2019-05-03T09:53:09.102Z,410.62
2019-05-03T09:54:08.874Z,376.88
2019-05-03T09:55:09.099Z,371.25
2019-05-03T09:56:09.339Z,343.12
2019-05-03T09:57:09.559Z,309.38
2019-05-03T09:58:09.789Z,275.62
2019-05-03T09:59:10.028Z,241.88
2019-05-03T10:00:10.140Z,219.38
2019-05-03T10:01:11.457Z,191.25
2019-05-03T10:02:11.643Z,168.75
